aviador You're here:

CYUY Decoded Metar

ROUYN in QC, CANADA
Report Time2018-04-22 14:00:00
UTC Time2018-04-22 14:11:34
Flight Rules vfr VFR
Wind260° at 05 kt
W.Decomp.*RWY 26: 4.9 kt HW 1.1 kt RCW
W.Rank260° ranks 15
Current wind is below 260° avg. (7.2)
Visibility9999 m
Phenomena:N/A
Clouds:N/A
Expected CloudBase > 6,800 ft AGL from Temp-Dew spread
CeilingNone
Temp06°C (ISA -7)
Dew Point-11°C (29% RH)
AAT1.1°C
QNH1030 hPa
Density Alt-390 ft
Elevation988 ft
Report Wrong Elevation
Raw Report
CYUY 221400Z 26005KT 15SM SKC 06/M11 A3041 RMK SLP316=

Extra information for CYUY:More info

Metar Taf Metar & Taf Last 4 Metars F.Rules Stats Wind Profile Meteogram Temp Stats Airport Information Weather charts Add Link Nearby VenuesMetar ALERT Operation Metar Decoded Social comments